createdAt,value
2018-01-13T00:00:26.523Z,7.10
2018-01-13T00:02:53.690Z,7.10
2018-01-13T00:05:20.150Z,7.10
2018-01-13T00:07:46.565Z,7.10
2018-01-13T00:10:13.015Z,7.20
2018-01-13T00:12:39.581Z,7.10
2018-01-13T00:15:06.045Z,7.00
2018-01-13T00:17:32.478Z,7.10
2018-01-13T00:19:58.888Z,7.00
2018-01-13T00:22:37.356Z,7.00
2018-01-13T00:25:03.772Z,7.00
2018-01-13T00:27:30.217Z,7.00
2018-01-13T00:29:56.681Z,7.00
2018-01-13T00:32:23.155Z,7.10
2018-01-13T00:34:49.671Z,7.20
2018-01-13T00:37:16.138Z,7.00
2018-01-13T00:39:42.736Z,6.90
2018-01-13T00:42:09.148Z,7.10
2018-01-13T00:44:35.582Z,7.10
2018-01-13T00:47:01.995Z,6.90
2018-01-13T00:49:28.472Z,6.80
2018-01-13T00:51:55.001Z,6.90
2018-01-13T00:54:22.357Z,6.80
2018-01-13T00:56:49.531Z,6.80
2018-01-13T00:59:16.049Z,6.70
2018-01-13T01:01:43.263Z,6.70
2018-01-13T01:04:09.827Z,6.70
2018-01-13T01:06:37.162Z,6.70
2018-01-13T01:09:10.617Z,6.70
2018-01-13T01:11:37.769Z,6.60
2018-01-13T01:14:04.183Z,6.60
2018-01-13T01:16:30.559Z,6.50
2018-01-13T01:18:56.984Z,6.50
2018-01-13T01:21:23.465Z,6.50
2018-01-13T01:23:49.994Z,6.50
2018-01-13T01:26:17.228Z,6.50
2018-01-13T01:28:43.632Z,6.50
2018-01-13T01:31:10.222Z,6.40
2018-01-13T01:33:36.752Z,6.40
2018-01-13T01:36:10.319Z,6.40
2018-01-13T01:38:36.756Z,6.50
2018-01-13T01:41:03.318Z,6.50
2018-01-13T01:43:29.737Z,6.50
2018-01-13T01:45:56.140Z,6.50
2018-01-13T01:48:24.519Z,6.40
2018-01-13T01:50:50.970Z,6.40
2018-01-13T01:53:17.489Z,6.40
2018-01-13T01:55:43.969Z,6.30
2018-01-13T01:58:10.387Z,6.30
2018-01-13T02:00:36.839Z,6.30
2018-01-13T02:03:04.015Z,6.30
2018-01-13T02:05:30.390Z,6.30
2018-01-13T02:07:56.836Z,6.20
2018-01-13T02:10:23.250Z,6.20
2018-01-13T02:12:49.750Z,6.10
2018-01-13T02:15:16.181Z,6.10
2018-01-13T02:17:42.599Z,6.00
2018-01-13T02:20:09.767Z,6.00
2018-01-13T02:22:36.180Z,6.00
2018-01-13T02:25:02.687Z,6.00
2018-01-13T02:27:29.099Z,6.10
2018-01-13T02:29:55.466Z,6.10
2018-01-13T02:32:22.706Z,5.90
2018-01-13T02:34:49.102Z,5.90
2018-01-13T02:37:15.562Z,6.00
2018-01-13T02:39:42.046Z,5.90
2018-01-13T02:42:08.454Z,6.00
2018-01-13T02:44:35.601Z,6.00
2018-01-13T02:47:02.812Z,6.10
2018-01-13T02:49:29.273Z,6.10
2018-01-13T02:51:55.729Z,6.10
2018-01-13T02:54:22.899Z,5.90
2018-01-13T02:56:49.381Z,5.90
2018-01-13T02:59:15.802Z,5.90
2018-01-13T03:01:42.256Z,5.90
2018-01-13T03:04:08.638Z,5.90
2018-01-13T03:06:35.033Z,5.90
2018-01-13T03:09:01.653Z,6.00
2018-01-13T03:11:28.912Z,5.80
2018-01-13T03:13:56.114Z,5.80
2018-01-13T03:16:23.375Z,5.80
2018-01-13T03:18:49.949Z,5.80
2018-01-13T03:21:16.399Z,5.80
2018-01-13T03:23:42.851Z,5.80
2018-01-13T03:26:09.348Z,5.70
2018-01-13T03:28:36.603Z,5.60
2018-01-13T03:31:03.031Z,5.60
2018-01-13T03:33:29.442Z,5.60
2018-01-13T03:35:55.814Z,5.60
2018-01-13T03:38:22.230Z,5.60
2018-01-13T03:40:48.625Z,5.50
2018-01-13T03:43:15.008Z,5.50
2018-01-13T03:45:42.165Z,5.50
2018-01-13T03:48:08.655Z,5.40
2018-01-13T03:50:35.026Z,5.50
2018-01-13T03:53:01.491Z,5.60
2018-01-13T03:55:27.910Z,5.50
2018-01-13T03:57:54.397Z,5.50
2018-01-13T04:00:21.594Z,5.60
2018-01-13T04:02:48.722Z,5.60
2018-01-13T04:05:15.858Z,5.60
2018-01-13T04:07:42.372Z,5.60
2018-01-13T04:10:08.782Z,5.60
2018-01-13T04:12:35.179Z,5.60
2018-01-13T04:15:02.368Z,5.50
2018-01-13T04:17:28.767Z,5.60
2018-01-13T04:19:55.993Z,5.50
2018-01-13T04:22:23.899Z,5.50
2018-01-13T04:24:50.341Z,5.50
2018-01-13T04:27:16.780Z,5.40
2018-01-13T04:29:43.238Z,5.40
2018-01-13T04:32:10.426Z,5.40
2018-01-13T04:34:36.810Z,5.40
2018-01-13T04:37:03.291Z,5.50
2018-01-13T04:39:30.496Z,5.60
2018-01-13T04:41:56.914Z,5.60
2018-01-13T04:44:23.421Z,5.50
2018-01-13T04:46:49.835Z,5.50
2018-01-13T04:49:16.207Z,5.50
2018-01-13T04:51:42.627Z,5.50
2018-01-13T04:54:09.750Z,5.70
2018-01-13T04:56:36.274Z,5.70
2018-01-13T04:59:02.711Z,5.60
2018-01-13T05:01:29.148Z,5.50
2018-01-13T05:03:55.522Z,5.50
2018-01-13T05:06:21.941Z,5.50
2018-01-13T05:08:48.332Z,5.70
2018-01-13T05:11:14.769Z,5.70
2018-01-13T05:13:41.207Z,5.70
2018-01-13T05:16:07.650Z,5.70
2018-01-13T05:18:34.015Z,5.70
2018-01-13T05:21:01.147Z,5.70
2018-01-13T05:23:28.322Z,5.60
2018-01-13T05:25:54.716Z,5.60
2018-01-13T05:28:21.916Z,5.70
2018-01-13T05:30:48.330Z,5.70
2018-01-13T05:33:14.816Z,5.70
2018-01-13T05:35:41.225Z,5.70
2018-01-13T05:38:07.631Z,5.80
2018-01-13T05:40:34.097Z,5.70
2018-01-13T05:43:00.652Z,5.70
2018-01-13T05:45:27.042Z,5.70
2018-01-13T05:47:53.483Z,5.70
2018-01-13T05:50:20.023Z,5.80
2018-01-13T05:52:46.430Z,5.80
2018-01-13T05:55:12.880Z,5.70
2018-01-13T05:57:39.371Z,5.70
2018-01-13T06:00:05.827Z,5.70
2018-01-13T06:02:32.227Z,5.70
2018-01-13T06:04:59.409Z,5.80
2018-01-13T06:07:25.815Z,5.70
2018-01-13T06:09:52.937Z,5.70
2018-01-13T06:12:19.356Z,5.70
2018-01-13T06:14:45.771Z,5.70
2018-01-13T06:17:12.166Z,5.70
2018-01-13T06:19:39.310Z,5.80
2018-01-13T06:22:05.742Z,5.80
2018-01-13T06:24:32.196Z,5.80
2018-01-13T06:26:58.645Z,5.80
2018-01-13T06:29:25.844Z,5.90
2018-01-13T06:31:52.276Z,5.90
2018-01-13T06:34:18.739Z,5.90
2018-01-13T06:36:45.191Z,5.90
2018-01-13T06:39:11.587Z,5.90
2018-01-13T06:41:37.998Z,5.90
2018-01-13T06:44:04.418Z,5.90
2018-01-13T06:46:30.802Z,5.90
2018-01-13T06:48:57.206Z,5.90
2018-01-13T06:51:23.720Z,5.90
2018-01-13T06:53:50.120Z,5.90
2018-01-13T06:56:16.602Z,5.90
2018-01-13T06:58:43.007Z,5.80
2018-01-13T07:01:09.363Z,5.80
2018-01-13T07:03:35.807Z,5.70
2018-01-13T07:06:02.206Z,5.70
2018-01-13T07:08:28.631Z,5.70
2018-01-13T07:10:55.202Z,5.70
2018-01-13T07:13:21.614Z,5.70
2018-01-13T07:15:48.175Z,5.70
2018-01-13T07:18:15.400Z,5.60
2018-01-13T07:20:41.776Z,5.60
2018-01-13T07:23:08.927Z,5.70
2018-01-13T07:25:36.108Z,5.70
2018-01-13T07:28:02.527Z,5.70
2018-01-13T07:30:29.021Z,5.80
2018-01-13T07:32:55.455Z,5.70
2018-01-13T07:35:21.892Z,5.80
2018-01-13T07:37:48.420Z,5.80
2018-01-13T07:40:14.941Z,5.80
2018-01-13T07:42:41.372Z,5.90
2018-01-13T07:45:07.776Z,5.90
2018-01-13T07:47:34.204Z,5.90
2018-01-13T07:50:00.597Z,5.90
2018-01-13T07:52:27.837Z,6.00
2018-01-13T07:54:54.373Z,6.00
2018-01-13T07:57:20.782Z,6.00
2018-01-13T07:59:47.190Z,6.00
2018-01-13T08:02:13.670Z,6.00
2018-01-13T08:04:40.209Z,6.10
2018-01-13T08:07:07.460Z,6.10
2018-01-13T08:09:34.688Z,6.10
2018-01-13T08:12:01.248Z,6.10
2018-01-13T08:14:28.396Z,6.20
2018-01-13T08:16:54.818Z,6.20
2018-01-13T08:19:21.211Z,6.20
2018-01-13T08:21:47.618Z,6.30
2018-01-13T08:24:14.040Z,6.40
2018-01-13T08:26:40.537Z,6.40
2018-01-13T08:29:06.930Z,6.30
2018-01-13T08:31:33.363Z,6.30
2018-01-13T08:33:59.772Z,6.30
2018-01-13T08:36:26.930Z,6.50
2018-01-13T08:38:54.160Z,6.40
2018-01-13T08:41:21.314Z,6.50
2018-01-13T08:43:48.474Z,6.50
2018-01-13T08:46:15.646Z,6.60
2018-01-13T08:48:42.144Z,6.60
2018-01-13T08:51:09.301Z,6.70
2018-01-13T08:53:35.829Z,6.70
2018-01-13T08:56:02.353Z,6.70
2018-01-13T08:58:28.773Z,6.70
2018-01-13T09:00:55.225Z,6.80
2018-01-13T09:03:21.647Z,6.80
2018-01-13T09:05:48.055Z,6.80
2018-01-13T09:08:14.512Z,6.80
2018-01-13T09:10:40.898Z,6.80
2018-01-13T09:13:07.289Z,6.90
2018-01-13T09:15:33.741Z,6.90
2018-01-13T09:18:00.126Z,6.90
2018-01-13T09:20:26.559Z,6.90
2018-01-13T09:22:52.999Z,7.10
2018-01-13T09:25:19.418Z,7.00
2018-01-13T09:27:45.849Z,7.00
2018-01-13T09:30:12.318Z,7.00
2018-01-13T09:32:38.770Z,7.10
2018-01-13T09:35:05.924Z,7.20
2018-01-13T09:37:32.542Z,7.20
2018-01-13T09:39:59.694Z,7.30
2018-01-13T09:42:26.124Z,7.20
2018-01-13T09:44:52.660Z,7.30
2018-01-13T09:47:19.197Z,7.30
2018-01-13T09:49:46.451Z,7.30
2018-01-13T09:52:13.828Z,7.40
2018-01-13T09:54:40.317Z,7.40
2018-01-13T09:57:06.853Z,7.50
2018-01-13T09:59:33.278Z,7.50
2018-01-13T10:01:59.675Z,7.60
2018-01-13T10:04:26.096Z,7.70
2018-01-13T10:06:53.268Z,7.80
2018-01-13T10:09:19.690Z,7.70
2018-01-13T10:11:46.100Z,7.90
2018-01-13T10:14:12.600Z,8.00
2018-01-13T10:16:38.994Z,8.00
2018-01-13T10:19:13.164Z,8.00
2018-01-13T10:21:39.600Z,8.00
2018-01-13T10:24:06.044Z,8.10
2018-01-13T10:26:33.268Z,8.00
2018-01-13T10:28:59.662Z,7.40
2018-01-13T10:31:26.124Z,8.00
2018-01-13T10:33:52.663Z,8.00
2018-01-13T10:36:19.111Z,8.00
2018-01-13T10:38:45.551Z,7.80
2018-01-13T10:41:12.003Z,7.90
2018-01-13T10:43:39.234Z,7.90
2018-01-13T10:46:05.674Z,7.90
2018-01-13T10:48:32.306Z,7.90
2018-01-13T10:50:58.768Z,8.00
2018-01-13T10:53:26.058Z,8.10
2018-01-13T10:55:52.458Z,8.10
2018-01-13T10:58:18.900Z,7.20
2018-01-13T11:00:46.088Z,8.10
2018-01-13T11:03:12.625Z,8.10
2018-01-13T11:05:39.014Z,8.20
2018-01-13T11:08:05.475Z,8.20
2018-01-13T11:10:31.926Z,8.20
2018-01-13T11:12:58.346Z,8.20
2018-01-13T11:15:24.913Z,8.20
2018-01-13T11:17:52.224Z,8.20
2018-01-13T11:20:19.006Z,8.10
2018-01-13T11:22:45.524Z,8.10
2018-01-13T11:25:11.990Z,8.00
2018-01-13T11:27:39.225Z,8.00
2018-01-13T11:30:06.483Z,8.00
2018-01-13T11:32:32.891Z,8.00
2018-01-13T11:34:59.316Z,8.10
2018-01-13T11:37:25.715Z,8.20
2018-01-13T11:39:52.194Z,8.20
2018-01-13T11:42:18.590Z,8.20
2018-01-13T11:44:45.024Z,8.30
2018-01-13T11:47:11.514Z,8.30
2018-01-13T11:49:38.680Z,8.40
2018-01-13T11:52:05.122Z,8.40
2018-01-13T11:54:31.587Z,8.40
2018-01-13T11:56:58.039Z,8.40
2018-01-13T11:59:25.943Z,8.30
2018-01-13T12:01:53.130Z,8.30
2018-01-13T12:04:19.553Z,8.30
2018-01-13T12:06:45.943Z,8.30
2018-01-13T12:09:12.385Z,8.20
2018-01-13T12:11:38.909Z,8.20
2018-01-13T12:14:05.295Z,8.10
2018-01-13T12:16:31.876Z,8.10
2018-01-13T12:18:58.259Z,8.20
2018-01-13T12:21:24.679Z,8.00
2018-01-13T12:23:51.176Z,7.80
2018-01-13T12:26:17.607Z,7.90
2018-01-13T12:28:44.003Z,7.80
2018-01-13T12:31:10.447Z,7.80
2018-01-13T12:33:36.886Z,7.80
2018-01-13T12:36:03.441Z,7.70
2018-01-13T12:38:30.056Z,7.70
2018-01-13T12:40:56.488Z,7.70
2018-01-13T12:43:23.026Z,7.80
2018-01-13T12:45:49.466Z,7.70
2018-01-13T12:48:15.870Z,7.70
2018-01-13T12:50:42.979Z,7.70
2018-01-13T12:53:10.149Z,7.60
2018-01-13T12:55:36.536Z,7.60
2018-01-13T12:58:02.957Z,7.50
2018-01-13T13:00:29.389Z,7.40
2018-01-13T13:02:55.810Z,7.40
2018-01-13T13:05:22.230Z,7.40
2018-01-13T13:07:48.704Z,7.50
2018-01-13T13:10:15.530Z,7.50
2018-01-13T13:12:42.445Z,7.50
2018-01-13T13:15:08.884Z,7.60
2018-01-13T13:17:35.279Z,7.60
2018-01-13T13:20:01.711Z,7.70
2018-01-13T13:22:28.949Z,7.70
2018-01-13T13:24:55.389Z,7.70
2018-01-13T13:27:22.031Z,7.60
2018-01-13T13:29:49.203Z,7.60
2018-01-13T13:32:15.571Z,7.60
2018-01-13T13:34:41.959Z,7.60
2018-01-13T13:37:09.152Z,7.60
2018-01-13T13:39:35.546Z,7.60
2018-01-13T13:42:01.974Z,7.60
2018-01-13T13:44:28.582Z,7.60
2018-01-13T13:46:54.991Z,7.60
2018-01-13T13:49:21.372Z,7.60
2018-01-13T13:51:48.540Z,7.70
2018-01-13T13:54:14.934Z,7.70
2018-01-13T13:56:42.107Z,7.70
2018-01-13T13:59:08.565Z,7.70
2018-01-13T14:01:34.970Z,7.60
2018-01-13T14:04:02.117Z,7.70
2018-01-13T14:06:29.280Z,7.70
2018-01-13T14:08:55.728Z,7.70
2018-01-13T14:11:22.129Z,7.70
2018-01-13T14:13:48.843Z,7.70
2018-01-13T14:16:15.385Z,7.60
2018-01-13T14:18:42.556Z,7.60
2018-01-13T14:21:09.727Z,7.60
2018-01-13T14:23:36.127Z,7.60
2018-01-13T14:26:03.279Z,7.50
2018-01-13T14:28:30.513Z,7.50
2018-01-13T14:30:56.980Z,7.50
2018-01-13T14:33:23.384Z,7.00
2018-01-13T14:35:49.918Z,7.30
2018-01-13T14:38:17.112Z,7.30
2018-01-13T14:40:43.538Z,7.30
2018-01-13T14:43:10.010Z,7.20
2018-01-13T14:45:36.673Z,7.30
2018-01-13T14:48:03.863Z,7.30
2018-01-13T14:50:31.025Z,7.30
2018-01-13T14:52:57.424Z,7.30
2018-01-13T14:55:23.839Z,6.70
2018-01-13T14:57:51.732Z,7.20
2018-01-13T15:00:18.172Z,7.30
2018-01-13T15:02:44.674Z,7.30
2018-01-13T15:05:12.005Z,7.30
2018-01-13T15:07:38.422Z,7.30
2018-01-13T15:10:04.904Z,7.20
2018-01-13T15:12:32.092Z,7.20
2018-01-13T15:14:58.632Z,7.10
2018-01-13T15:17:25.218Z,7.10
2018-01-13T15:19:51.668Z,7.10
2018-01-13T15:22:18.819Z,7.00
2018-01-13T15:24:46.036Z,7.10
2018-01-13T15:27:12.543Z,7.10
2018-01-13T15:29:38.971Z,7.00
2018-01-13T15:32:06.084Z,7.00
2018-01-13T15:34:33.249Z,7.20
2018-01-13T15:36:59.668Z,7.20
2018-01-13T15:39:33.795Z,7.20
2018-01-13T15:42:00.209Z,7.10
2018-01-13T15:44:27.339Z,7.00
2018-01-13T15:46:53.789Z,7.00
2018-01-13T15:49:20.312Z,7.00
2018-01-13T15:51:46.762Z,7.00
2018-01-13T15:54:13.360Z,7.00
2018-01-13T15:56:39.786Z,7.00
2018-01-13T15:59:06.202Z,6.90
2018-01-13T16:01:32.672Z,6.90
2018-01-13T16:03:59.886Z,6.90
2018-01-13T16:06:26.281Z,6.90
2018-01-13T16:08:52.965Z,6.90
2018-01-13T16:11:19.413Z,6.90
2018-01-13T16:13:45.795Z,6.90
2018-01-13T16:16:12.974Z,7.10
2018-01-13T16:18:39.394Z,7.10
2018-01-13T16:21:06.527Z,7.00
2018-01-13T16:23:32.988Z,7.00
2018-01-13T16:25:59.402Z,7.00
2018-01-13T16:28:25.877Z,7.00
2018-01-13T16:30:52.538Z,6.90
2018-01-13T16:33:19.713Z,6.90
2018-01-13T16:35:46.147Z,6.90
2018-01-13T16:38:13.366Z,6.80
2018-01-13T16:40:39.820Z,6.80
2018-01-13T16:43:07.017Z,6.80
2018-01-13T16:45:33.802Z,6.80
2018-01-13T16:48:00.991Z,6.80
2018-01-13T16:50:28.139Z,6.70
2018-01-13T16:52:54.568Z,6.70
2018-01-13T16:55:20.974Z,6.70
2018-01-13T16:57:47.442Z,6.80
2018-01-13T17:00:14.012Z,6.70
2018-01-13T17:02:40.411Z,6.80
2018-01-13T17:05:06.913Z,6.70
2018-01-13T17:07:33.537Z,6.60
2018-01-13T17:10:00.078Z,6.70
2018-01-13T17:12:27.329Z,6.60
2018-01-13T17:14:53.953Z,6.60
2018-01-13T17:17:20.419Z,6.50
2018-01-13T17:19:47.653Z,6.40
2018-01-13T17:22:14.855Z,6.50
2018-01-13T17:24:41.254Z,6.50
2018-01-13T17:27:08.372Z,6.50
2018-01-13T17:29:36.282Z,6.50
2018-01-13T17:32:02.665Z,6.50
2018-01-13T17:34:29.057Z,6.50
2018-01-13T17:36:55.540Z,6.40
2018-01-13T17:39:22.005Z,6.40
2018-01-13T17:41:49.251Z,6.30
2018-01-13T17:44:16.415Z,6.40
2018-01-13T17:46:42.827Z,6.40
2018-01-13T17:49:10.149Z,6.50
2018-01-13T17:51:36.710Z,6.50
2018-01-13T17:54:03.932Z,6.50
2018-01-13T17:56:30.355Z,6.50
2018-01-13T17:58:56.784Z,6.50
2018-01-13T18:01:23.332Z,6.50
2018-01-13T18:03:49.868Z,6.30
2018-01-13T18:06:16.324Z,6.20
2018-01-13T18:08:43.496Z,6.40
2018-01-13T18:11:09.933Z,6.40
2018-01-13T18:13:37.110Z,6.40
2018-01-13T18:16:03.695Z,6.40
2018-01-13T18:18:30.864Z,6.40
2018-01-13T18:20:57.306Z,6.40
2018-01-13T18:23:24.450Z,6.30
2018-01-13T18:25:51.607Z,6.20
2018-01-13T18:28:18.911Z,6.20
2018-01-13T18:30:45.330Z,6.20
2018-01-13T18:33:11.710Z,6.30
2018-01-13T18:35:38.110Z,6.30
2018-01-13T18:38:04.643Z,6.30
2018-01-13T18:40:31.066Z,6.20
2018-01-13T18:42:57.519Z,6.20
2018-01-13T18:45:24.067Z,6.20
2018-01-13T18:47:50.455Z,6.20
2018-01-13T18:50:17.036Z,6.30
2018-01-13T18:52:44.198Z,6.20
2018-01-13T18:55:11.363Z,6.20
2018-01-13T18:57:37.882Z,6.20
2018-01-13T19:00:04.380Z,6.30
2018-01-13T19:02:30.788Z,6.30
2018-01-13T19:04:57.428Z,6.30
2018-01-13T19:07:24.001Z,6.30
2018-01-13T19:09:50.379Z,6.20
2018-01-13T19:12:16.815Z,6.10
2018-01-13T19:14:43.218Z,6.00
2018-01-13T19:17:10.357Z,6.10
2018-01-13T19:19:36.797Z,6.10
2018-01-13T19:22:03.202Z,6.20
2018-01-13T19:24:29.604Z,6.10
2018-01-13T19:26:56.993Z,6.20
2018-01-13T19:29:23.393Z,6.20
2018-01-13T19:31:49.798Z,6.20
2018-01-13T19:34:17.133Z,6.20
2018-01-13T19:36:44.377Z,6.10
2018-01-13T19:39:10.835Z,6.10
2018-01-13T19:41:38.146Z,6.10
2018-01-13T19:44:04.553Z,6.10
2018-01-13T19:46:31.953Z,6.00
2018-01-13T19:48:59.143Z,6.00
2018-01-13T19:51:25.638Z,6.10
2018-01-13T19:53:52.052Z,6.10
2018-01-13T19:56:18.470Z,6.00
2018-01-13T19:58:44.936Z,6.00
2018-01-13T20:01:12.096Z,6.00
2018-01-13T20:03:38.482Z,6.00
2018-01-13T20:06:04.883Z,5.90
2018-01-13T20:08:31.256Z,5.90
2018-01-13T20:10:57.717Z,5.90
2018-01-13T20:13:24.258Z,5.90
2018-01-13T20:15:51.411Z,5.80
2018-01-13T20:18:17.983Z,5.80
2018-01-13T20:20:45.197Z,5.90
2018-01-13T20:23:12.368Z,5.90
2018-01-13T20:25:39.672Z,5.90
2018-01-13T20:28:06.128Z,5.90
2018-01-13T20:30:32.540Z,5.90
2018-01-13T20:32:59.048Z,5.90
2018-01-13T20:35:25.476Z,5.90
2018-01-13T20:37:51.903Z,5.90
2018-01-13T20:40:18.387Z,5.80
2018-01-13T20:42:44.811Z,5.90
2018-01-13T20:45:11.211Z,5.90
2018-01-13T20:47:37.798Z,5.80
2018-01-13T20:50:04.234Z,5.80
2018-01-13T20:52:30.764Z,5.90
2018-01-13T20:54:57.252Z,5.90
2018-01-13T20:57:23.666Z,5.80
2018-01-13T20:59:50.129Z,5.90
2018-01-13T21:02:16.618Z,5.90
2018-01-13T21:04:43.775Z,5.90
2018-01-13T21:07:10.945Z,5.90
2018-01-13T21:09:37.366Z,5.90
2018-01-13T21:12:03.881Z,5.80
2018-01-13T21:14:31.025Z,5.80
2018-01-13T21:16:57.628Z,5.80
2018-01-13T21:19:24.077Z,5.80
2018-01-13T21:21:50.558Z,5.80
2018-01-13T21:24:17.064Z,5.80
2018-01-13T21:26:43.491Z,5.70
2018-01-13T21:29:09.996Z,5.70
2018-01-13T21:31:36.431Z,5.70
2018-01-13T21:34:02.875Z,5.70
2018-01-13T21:36:29.295Z,5.60
2018-01-13T21:38:55.838Z,5.60
2018-01-13T21:41:23.831Z,5.70
2018-01-13T21:43:51.013Z,5.70
2018-01-13T21:46:17.617Z,5.70
2018-01-13T21:48:44.803Z,5.60
2018-01-13T21:51:11.210Z,5.60
2018-01-13T21:53:37.882Z,5.60
2018-01-13T21:56:04.334Z,5.60
2018-01-13T21:58:30.770Z,5.60
2018-01-13T22:00:57.318Z,5.60
2018-01-13T22:03:23.747Z,5.50
2018-01-13T22:05:50.143Z,5.50
2018-01-13T22:08:16.587Z,5.60
2018-01-13T22:10:43.175Z,5.60
2018-01-13T22:13:10.359Z,5.60
2018-01-13T22:15:36.856Z,5.60
2018-01-13T22:18:03.403Z,5.60
2018-01-13T22:20:29.810Z,5.50
2018-01-13T22:22:56.268Z,5.50
2018-01-13T22:25:22.698Z,5.60
2018-01-13T22:27:49.865Z,5.50
2018-01-13T22:30:17.073Z,5.60
2018-01-13T22:32:43.733Z,5.60
2018-01-13T22:35:10.910Z,5.50
2018-01-13T22:37:38.093Z,5.60
2018-01-13T22:40:04.521Z,5.60
2018-01-13T22:42:31.103Z,5.50
2018-01-13T22:44:57.637Z,5.50
2018-01-13T22:47:24.797Z,5.60
2018-01-13T22:49:52.041Z,5.60
2018-01-13T22:52:19.238Z,5.60
2018-01-13T22:54:45.650Z,5.60
2018-01-13T22:57:12.132Z,5.50
2018-01-13T22:59:38.670Z,5.50
2018-01-13T23:02:05.136Z,5.50
2018-01-13T23:04:32.480Z,5.50
2018-01-13T23:06:59.015Z,5.50
2018-01-13T23:09:26.341Z,5.40
2018-01-13T23:11:52.767Z,5.40
2018-01-13T23:14:19.195Z,5.40
2018-01-13T23:16:45.629Z,5.40
2018-01-13T23:19:12.086Z,5.40
2018-01-13T23:21:38.636Z,5.40
2018-01-13T23:24:05.134Z,5.40
2018-01-13T23:26:31.620Z,5.40
2018-01-13T23:28:58.130Z,5.40
2018-01-13T23:31:24.560Z,5.30
2018-01-13T23:33:50.985Z,5.30
2018-01-13T23:36:17.456Z,5.30
2018-01-13T23:38:43.978Z,5.30
2018-01-13T23:41:10.511Z,5.30
2018-01-13T23:43:37.745Z,5.30
2018-01-13T23:46:04.209Z,5.20
2018-01-13T23:48:30.602Z,5.30
2018-01-13T23:50:57.226Z,5.20
2018-01-13T23:53:23.698Z,5.10
2018-01-13T23:55:51.666Z,5.20
2018-01-13T23:58:18.078Z,5.20
